Time;durP1;ratioP1;P1;durP2;ratioP2;P2;SDS_P1;SDS_P2;PMS_P1;PMS_P2;Temp;Humidity;BMP_temperature;BMP_pressure;BME280_temperature;BME280_humidity;BME280_pressure;Samples;Min_cycle;Max_cycle;Signal;HPM_P1;HPM_P2
2023/11/18 00:00:55;;;;;;;;;;;;;;;;;;4202548;28;19920;-64
2023/11/18 00:02:58;;;;;;;;;;;;;;;;;;4215068;28;19955;-64
2023/11/18 00:05:01;;;;;;;;;;;;;;;;;;4214904;28;19920;-64
2023/11/18 00:07:04;;;;;;;;;;;;;;;;;;4199161;28;19920;-59
2023/11/18 00:09:07;;;;;;;;;;;;;;;;;;4202866;28;19924;-60
2023/11/18 00:11:11;;;;;;;;;;;;;;;;;;4214892;28;20040;-59
2023/11/18 00:13:14;;;;;;;;;;;;;;;;;;4215038;28;20336;-59
2023/11/18 00:15:17;;;;;;;;;;;;;;;;;;4213317;28;20383;-59
2023/11/18 00:17:20;;;;;;;;;;;;;;;;;;4214648;28;19924;-59
2023/11/18 00:19:23;;;;;;;;;;;;;;;;;;4214897;28;19927;-59
2023/11/18 00:21:27;;;;;;;;;;;;;;;;;;4215267;28;19920;-59
2023/11/18 00:23:30;;;;;;;;;;;;;;;;;;4211318;28;19924;-59
2023/11/18 00:25:35;;;;;;;;;;;;;;;;;;4162681;28;19924;-58
2023/11/18 00:27:38;;;;;;;;;;;;;;;;;;4197970;28;20287;-59
2023/11/18 00:29:43;;;;;;;;;;;;;;;;;;4196659;28;19924;-60
2023/11/18 00:31:46;;;;;;;;;;;;;;;;;;4197958;28;19928;-58
2023/11/18 00:33:49;;;;;;;;;;;;;;;;;;4197839;28;19921;-59
2023/11/18 00:35:52;;;;;;;;;;;;;;;;;;4197934;28;19920;-59
2023/11/18 00:37:55;;;;;;;;;;;;;;;;;;4197585;28;19974;-59
2023/11/18 00:39:58;;;;;;;;;;;;;;;;;;4197858;28;19924;-60
2023/11/18 00:42:01;;;;;;;;;;;;;;;;;;4198054;28;19927;-58
2023/11/18 00:44:04;;;;;;;;;;;;;;;;;;4197655;28;19946;-60
2023/11/18 00:46:10;;;;;;;;;;;;;;;;;;4180352;28;19971;-59
2023/11/18 00:48:13;;;;;;;;;;;;;;;;;;4196375;28;20006;-59
2023/11/18 00:50:16;;;;;;;;;;;;;;;;;;4197806;28;19920;-60
2023/11/18 00:52:19;;;;;;;;;;;;;;;;;;4180089;28;19921;-60
2023/11/18 00:54:22;;;;;;;;;;;;;;;;;;4196145;28;20399;-59
2023/11/18 00:56:28;;;;;;;;;;;;;;;;;;4197772;28;20395;-59
2023/11/18 00:58:31;;;;;;;;;;;;;;;;;;4196190;28;20396;-59
2023/11/18 01:00:36;;;;;;;;;;;;;;;;;;4199360;28;19924;-59
2023/11/18 01:02:39;;;;;;;;;;;;;;;;;;4211245;28;19985;-59
2023/11/18 01:04:41;;;;;;;;;;;;;;;;;;4181039;28;20493;-60
2023/11/18 01:06:44;;;;;;;;;;;;;;;;;;4163207;28;19920;-59
2023/11/18 01:08:47;;;;;;;;;;;;;;;;;;4196683;28;19977;-60
2023/11/18 01:10:51;;;;;;;;;;;;;;;;;;4213110;28;20379;-59
2023/11/18 01:12:55;;;;;;;;;;;;;;;;;;4213214;28;19998;-60
2023/11/18 01:15:03;;;;;;;;;;;;;;;;;;4214327;28;20025;-59
2023/11/18 01:17:06;;;;;;;;;;;;;;;;;;4214349;28;19927;-59
2023/11/18 01:19:09;;;;;;;;;;;;;;;;;;4212561;28;20242;-59
2023/11/18 01:21:12;;;;;;;;;;;;;;;;;;4198908;28;19928;-58
2023/11/18 01:23:15;;;;;;;;;;;;;;;;;;4195935;28;19921;-59
2023/11/18 01:25:18;;;;;;;;;;;;;;;;;;4196204;28;19924;-59
2023/11/18 01:27:22;;;;;;;;;;;;;;;;;;4197586;28;20003;-59
2023/11/18 01:29:25;;;;;;;;;;;;;;;;;;4197576;28;19920;-59
2023/11/18 01:31:31;;;;;;;;;;;;;;;;;;4197191;28;19928;-59
2023/11/18 01:33:46;;;;;;;;;;;;;;;;;;4197502;28;19920;-60
2023/11/18 01:35:49;;;;;;;;;;;;;;;;;;4197581;28;19926;-59
2023/11/18 01:37:52;;;;;;;;;;;;;;;;;;4197407;28;20456;-59
2023/11/18 01:39:55;;;;;;;;;;;;;;;;;;4197352;28;19926;-59
2023/11/18 01:41:59;;;;;;;;;;;;;;;;;;4198820;28;19964;-59
2023/11/18 01:44:04;;;;;;;;;;;;;;;;;;4199064;28;20001;-59
2023/11/18 01:46:07;;;;;;;;;;;;;;;;;;4200714;28;19924;-60
2023/11/18 01:48:10;;;;;;;;;;;;;;;;;;4200203;28;19920;-59
2023/11/18 01:50:12;;;;;;;;;;;;;;;;;;4200394;28;19924;-59
2023/11/18 01:52:17;;;;;;;;;;;;;;;;;;4200462;28;19920;-59
2023/11/18 01:54:23;;;;;;;;;;;;;;;;;;4200364;28;19922;-59
2023/11/18 01:56:27;;;;;;;;;;;;;;;;;;4182522;28;20412;-59
2023/11/18 01:58:30;;;;;;;;;;;;;;;;;;4198972;28;19920;-59
2023/11/18 02:00:34;;;;;;;;;;;;;;;;;;4192857;28;19931;-59
2023/11/18 02:02:43;;;;;;;;;;;;;;;;;;4213614;22;19931;-71
2023/11/18 02:04:45;;;;;;;;;;;;;;;;;;4183164;28;19921;-69
2023/11/18 02:06:47;;;;;;;;;;;;;;;;;;4183282;28;19924;-70
2023/11/18 02:08:49;;;;;;;;;;;;;;;;;;4182898;28;19931;-70
2023/11/18 02:10:50;;;;;;;;;;;;;;;;;;4183190;28;19960;-70
2023/11/18 02:12:53;;;;;;;;;;;;;;;;;;4183179;28;19928;-70
2023/11/18 02:14:54;;;;;;;;;;;;;;;;;;4183122;28;19931;-70
2023/11/18 02:16:56;;;;;;;;;;;;;;;;;;4183075;28;20014;-70
2023/11/18 02:18:57;;;;;;;;;;;;;;;;;;4183537;28;19978;-67
2023/11/18 02:20:59;;;;;;;;;;;;;;;;;;4182986;28;19920;-70
2023/11/18 02:23:00;;;;;;;;;;;;;;;;;;4183215;28;19932;-70
2023/11/18 02:25:06;;;;;;;;;;;;;;;;;;4182838;28;19927;-70
2023/11/18 02:27:07;;;;;;;;;;;;;;;;;;4182945;28;19920;-70
2023/11/18 02:29:09;;;;;;;;;;;;;;;;;;4182882;28;19928;-70
2023/11/18 02:31:12;;;;;;;;;;;;;;;;;;4182824;28;19925;-69
2023/11/18 02:33:14;;;;;;;;;;;;;;;;;;4182131;28;19927;-68
2023/11/18 02:35:16;;;;;;;;;;;;;;;;;;4182799;28;19920;-68
2023/11/18 02:37:17;;;;;;;;;;;;;;;;;;4182824;28;20289;-70
2023/11/18 02:39:19;;;;;;;;;;;;;;;;;;4182743;28;19952;-70
2023/11/18 02:41:20;;;;;;;;;;;;;;;;;;4182821;28;20468;-70
2023/11/18 02:43:22;;;;;;;;;;;;;;;;;;4182918;28;19959;-71
2023/11/18 02:45:23;;;;;;;;;;;;;;;;;;4182591;28;19921;-70
2023/11/18 02:47:25;;;;;;;;;;;;;;;;;;4182674;28;19921;-70
2023/11/18 02:49:27;;;;;;;;;;;;;;;;;;4182862;28;19924;-70
2023/11/18 02:51:33;;;;;;;;;;;;;;;;;;4182529;28;19982;-69
2023/11/18 02:53:35;;;;;;;;;;;;;;;;;;4181280;28;20464;-70
2023/11/18 02:55:36;;;;;;;;;;;;;;;;;;4182487;28;19975;-70
2023/11/18 02:57:38;;;;;;;;;;;;;;;;;;4182650;28;19927;-70
2023/11/18 02:59:39;;;;;;;;;;;;;;;;;;4182588;28;19921;-70
2023/11/18 03:01:41;;;;;;;;;;;;;;;;;;4176771;28;19963;-69
2023/11/18 03:03:43;;;;;;;;;;;;;;;;;;4215734;28;20002;-70
2023/11/18 03:05:45;;;;;;;;;;;;;;;;;;4215592;28;19966;-70
2023/11/18 03:07:49;;;;;;;;;;;;;;;;;;4215718;28;20294;-70
2023/11/18 03:09:51;;;;;;;;;;;;;;;;;;4215686;28;19950;-69
2023/11/18 03:11:52;;;;;;;;;;;;;;;;;;4215491;28;19920;-68
2023/11/18 03:13:54;;;;;;;;;;;;;;;;;;4198807;28;19924;-70
2023/11/18 03:15:55;;;;;;;;;;;;;;;;;;4180799;28;19924;-70
2023/11/18 03:18:05;;;;;;;;;;;;;;;;;;4198772;28;19920;-69
2023/11/18 03:20:08;;;;;;;;;;;;;;;;;;4198521;28;20011;-70
2023/11/18 03:22:09;;;;;;;;;;;;;;;;;;4198595;28;19924;-70
2023/11/18 03:24:11;;;;;;;;;;;;;;;;;;4198570;28;19928;-70
2023/11/18 03:26:12;;;;;;;;;;;;;;;;;;4198570;28;19920;-70
2023/11/18 03:28:14;;;;;;;;;;;;;;;;;;4198268;28;19924;-70
2023/11/18 03:30:16;;;;;;;;;;;;;;;;;;4198452;28;20473;-69
2023/11/18 03:32:18;;;;;;;;;;;;;;;;;;4198427;28;19928;-70
2023/11/18 03:34:20;;;;;;;;;;;;;;;;;;4198473;28;20291;-70
2023/11/18 03:36:21;;;;;;;;;;;;;;;;;;4198337;28;19973;-70
2023/11/18 03:38:23;;;;;;;;;;;;;;;;;;4198317;28;19924;-70
2023/11/18 03:40:25;;;;;;;;;;;;;;;;;;4198045;28;19924;-70
2023/11/18 03:42:29;;;;;;;;;;;;;;;;;;4198346;28;19967;-70
2023/11/18 03:44:30;;;;;;;;;;;;;;;;;;4198251;28;19927;-69
2023/11/18 03:46:34;;;;;;;;;;;;;;;;;;4198292;28;20019;-70
2023/11/18 03:48:36;;;;;;;;;;;;;;;;;;4198154;28;19921;-70
2023/11/18 03:50:37;;;;;;;;;;;;;;;;;;4198070;28;19925;-70
2023/11/18 03:52:39;;;;;;;;;;;;;;;;;;4198012;28;19927;-70
2023/11/18 03:54:41;;;;;;;;;;;;;;;;;;4198123;28;20011;-70
2023/11/18 03:56:43;;;;;;;;;;;;;;;;;;4194212;28;19920;-70
2023/11/18 03:58:47;;;;;;;;;;;;;;;;;;4190179;28;19921;-70
2023/11/18 04:00:48;;;;;;;;;;;;;;;;;;4188836;28;19924;-70
2023/11/18 04:02:50;;;;;;;;;;;;;;;;;;4214416;28;19966;-69
2023/11/18 04:04:51;;;;;;;;;;;;;;;;;;4214481;28;20010;-70
2023/11/18 04:06:53;;;;;;;;;;;;;;;;;;4214960;28;19924;-70
2023/11/18 04:08:54;;;;;;;;;;;;;;;;;;4187385;28;19925;-70
2023/11/18 04:10:58;;;;;;;;;;;;;;;;;;4197782;28;19989;-70
2023/11/18 04:12:59;;;;;;;;;;;;;;;;;;4198117;28;19928;-70
2023/11/18 04:15:01;;;;;;;;;;;;;;;;;;4198041;28;19920;-70
2023/11/18 04:17:02;;;;;;;;;;;;;;;;;;4180008;28;20358;-70
2023/11/18 04:19:04;;;;;;;;;;;;;;;;;;4197817;28;19920;-70
2023/11/18 04:21:07;;;;;;;;;;;;;;;;;;4197739;28;19920;-59
2023/11/18 04:23:11;;;;;;;;;;;;;;;;;;4197702;28;19921;-59
2023/11/18 04:25:13;;;;;;;;;;;;;;;;;;4197631;28;20304;-59
2023/11/18 04:27:14;;;;;;;;;;;;;;;;;;4179804;28;19921;-61
2023/11/18 04:29:16;;;;;;;;;;;;;;;;;;4197676;28;19920;-60
2023/11/18 04:31:17;;;;;;;;;;;;;;;;;;4197672;28;19927;-60
2023/11/18 04:33:19;;;;;;;;;;;;;;;;;;4197538;28;19927;-60
2023/11/18 04:35:22;;;;;;;;;;;;;;;;;;4197563;28;20330;-60
2023/11/18 04:37:23;;;;;;;;;;;;;;;;;;4197619;28;20295;-59
2023/11/18 04:39:25;;;;;;;;;;;;;;;;;;4197412;28;19927;-59
2023/11/18 04:41:27;;;;;;;;;;;;;;;;;;4197754;28;19920;-60
2023/11/18 04:43:29;;;;;;;;;;;;;;;;;;4197786;28;19921;-60
2023/11/18 04:45:42;;;;;;;;;;;;;;;;;;4181061;28;19983;-59
2023/11/18 04:47:44;;;;;;;;;;;;;;;;;;4199438;28;20330;-59
2023/11/18 04:49:46;;;;;;;;;;;;;;;;;;4214368;28;20344;-60
2023/11/18 04:51:47;;;;;;;;;;;;;;;;;;4214203;28;19965;-59
2023/11/18 04:53:49;;;;;;;;;;;;;;;;;;4210816;28;19920;-60
2023/11/18 04:55:50;;;;;;;;;;;;;;;;;;4197370;28;20429;-61
2023/11/18 04:57:52;;;;;;;;;;;;;;;;;;4197402;28;19928;-59
2023/11/18 04:59:53;;;;;;;;;;;;;;;;;;4197538;28;19920;-60
2023/11/18 05:01:55;;;;;;;;;;;;;;;;;;4196706;28;19920;-59
2023/11/18 05:03:57;;;;;;;;;;;;;;;;;;4197317;28;19967;-59
2023/11/18 05:05:58;;;;;;;;;;;;;;;;;;4197199;28;19920;-60
2023/11/18 05:08:00;;;;;;;;;;;;;;;;;;4197117;28;19924;-59
2023/11/18 05:10:04;;;;;;;;;;;;;;;;;;4197213;28;19931;-59
2023/11/18 05:12:06;;;;;;;;;;;;;;;;;;4197390;28;19920;-60
2023/11/18 05:14:08;;;;;;;;;;;;;;;;;;4197213;28;20273;-60
2023/11/18 05:16:10;;;;;;;;;;;;;;;;;;4197098;28;20295;-60
2023/11/18 05:18:14;;;;;;;;;;;;;;;;;;4200629;28;19962;-60
2023/11/18 05:20:17;;;;;;;;;;;;;;;;;;4200437;28;19921;-60
2023/11/18 05:22:19;;;;;;;;;;;;;;;;;;4200529;28;20054;-59
2023/11/18 05:24:20;;;;;;;;;;;;;;;;;;4200669;28;19921;-59
2023/11/18 05:26:21;;;;;;;;;;;;;;;;;;4200751;28;19928;-59
2023/11/18 05:28:24;;;;;;;;;;;;;;;;;;4200425;28;19921;-59
2023/11/18 05:30:25;;;;;;;;;;;;;;;;;;4200610;28;19921;-59
2023/11/18 05:32:27;;;;;;;;;;;;;;;;;;4200531;28;20306;-60
2023/11/18 05:34:29;;;;;;;;;;;;;;;;;;4200414;28;20403;-59
2023/11/18 05:36:36;;;;;;;;;;;;;;;;;;4200435;28;20261;-59
2023/11/18 05:38:38;;;;;;;;;;;;;;;;;;4200559;28;19921;-60
2023/11/18 05:40:43;;;;;;;;;;;;;;;;;;4200162;28;20334;-59
2023/11/18 05:42:47;;;;;;;;;;;;;;;;;;4200171;28;20372;-59
2023/11/18 05:44:49;;;;;;;;;;;;;;;;;;4200098;28;19924;-59
2023/11/18 05:46:51;;;;;;;;;;;;;;;;;;4200463;28;19967;-59
2023/11/18 05:48:53;;;;;;;;;;;;;;;;;;4200213;28;19920;-61
2023/11/18 05:50:55;;;;;;;;;;;;;;;;;;4200126;28;19924;-59
2023/11/18 05:52:56;;;;;;;;;;;;;;;;;;4200284;28;19925;-59
2023/11/18 05:54:58;;;;;;;;;;;;;;;;;;4200173;28;19927;-61
2023/11/18 05:56:59;;;;;;;;;;;;;;;;;;4200171;28;19920;-59
2023/11/18 05:59:04;;;;;;;;;;;;;;;;;;4199975;28;19920;-60
2023/11/18 06:01:08;;;;;;;;;;;;;;;;;;4199434;28;19920;-59
2023/11/18 06:03:11;;;;;;;;;;;;;;;;;;4199541;28;19924;-59
2023/11/18 06:05:12;;;;;;;;;;;;;;;;;;4199796;28;19930;-60
2023/11/18 06:07:14;;;;;;;;;;;;;;;;;;4199814;28;19920;-60
2023/11/18 06:09:20;;;;;;;;;;;;;;;;;;4199618;28;19959;-59
2023/11/18 06:11:23;;;;;;;;;;;;;;;;;;4199651;28;19936;-59
2023/11/18 06:13:27;;;;;;;;;;;;;;;;;;4199643;28;19925;-60
2023/11/18 06:15:29;;;;;;;;;;;;;;;;;;4199649;28;20402;-60
2023/11/18 06:17:30;;;;;;;;;;;;;;;;;;4199372;28;19920;-59
2023/11/18 06:19:32;;;;;;;;;;;;;;;;;;4199456;28;19960;-60
2023/11/18 06:21:33;;;;;;;;;;;;;;;;;;4199528;28;20471;-59
2023/11/18 06:23:35;;;;;;;;;;;;;;;;;;4181967;28;20027;-59
2023/11/18 06:25:36;;;;;;;;;;;;;;;;;;4199434;28;19920;-60
2023/11/18 06:27:38;;;;;;;;;;;;;;;;;;4199215;28;19924;-59
2023/11/18 06:29:40;;;;;;;;;;;;;;;;;;4199739;28;19920;-59
2023/11/18 06:31:42;;;;;;;;;;;;;;;;;;4199347;28;19966;-60
2023/11/18 06:33:44;;;;;;;;;;;;;;;;;;4199661;28;19928;-59
2023/11/18 06:35:45;;;;;;;;;;;;;;;;;;4199370;28;19926;-61
2023/11/18 06:37:47;;;;;;;;;;;;;;;;;;4199376;28;20300;-60
2023/11/18 06:39:49;;;;;;;;;;;;;;;;;;4199233;28;19928;-60
2023/11/18 06:41:51;;;;;;;;;;;;;;;;;;4181604;28;19921;-61
2023/11/18 06:45:58;;;;;;;;;;;;;;;;;;4199110;28;19943;-61
2023/11/18 06:48:00;;;;;;;;;;;;;;;;;;4199395;28;19928;-59
2023/11/18 06:50:01;;;;;;;;;;;;;;;;;;4192790;28;19921;-60
2023/11/18 06:52:03;;;;;;;;;;;;;;;;;;4189541;28;19951;-59
2023/11/18 06:54:08;;;;;;;;;;;;;;;;;;4198936;28;20303;-59
2023/11/18 06:56:12;;;;;;;;;;;;;;;;;;4199014;28;19951;-60
2023/11/18 06:58:13;;;;;;;;;;;;;;;;;;4198930;28;20299;-60
2023/11/18 07:00:15;;;;;;;;;;;;;;;;;;4180972;28;20347;-59
2023/11/18 07:02:17;;;;;;;;;;;;;;;;;;4215019;28;19924;-61
2023/11/18 07:04:19;;;;;;;;;;;;;;;;;;4215564;28;19969;-60
2023/11/18 07:06:22;;;;;;;;;;;;;;;;;;4194059;28;20292;-60
2023/11/18 07:08:24;;;;;;;;;;;;;;;;;;4198101;28;19924;-59
2023/11/18 07:10:27;;;;;;;;;;;;;;;;;;4181161;28;19928;-59
2023/11/18 07:12:28;;;;;;;;;;;;;;;;;;4198645;28;20342;-60
2023/11/18 07:14:30;;;;;;;;;;;;;;;;;;4198509;28;20323;-60
2023/11/18 07:16:34;;;;;;;;;;;;;;;;;;4198580;28;19948;-60
2023/11/18 07:18:36;;;;;;;;;;;;;;;;;;4198855;28;19920;-61
2023/11/18 07:20:38;;;;;;;;;;;;;;;;;;4198670;28;19920;-59
2023/11/18 07:22:39;;;;;;;;;;;;;;;;;;4198612;28;19920;-60
2023/11/18 07:24:42;;;;;;;;;;;;;;;;;;4197393;28;19924;-60
2023/11/18 07:26:45;;;;;;;;;;;;;;;;;;4198371;28;19986;-60
2023/11/18 07:28:46;;;;;;;;;;;;;;;;;;4198458;28;19920;-60
2023/11/18 07:30:48;;;;;;;;;;;;;;;;;;4193944;28;19920;-60
2023/11/18 07:32:50;;;;;;;;;;;;;;;;;;4191508;28;19925;-61
2023/11/18 07:34:52;;;;;;;;;;;;;;;;;;4192653;28;19924;-61
2023/11/18 07:36:55;;;;;;;;;;;;;;;;;;4195739;28;19934;-61
2023/11/18 07:38:58;;;;;;;;;;;;;;;;;;4180179;28;19986;-60
2023/11/18 07:41:02;;;;;;;;;;;;;;;;;;4197909;28;19920;-60
2023/11/18 07:43:03;;;;;;;;;;;;;;;;;;4196740;28;19975;-60
2023/11/18 07:45:17;;;;;;;;;;;;;;;;;;4173996;28;19921;-60
2023/11/18 07:47:21;;;;;;;;;;;;;;;;;;4187220;28;20019;-60
2023/11/18 07:49:26;;;;;;;;;;;;;;;;;;4181692;28;20308;-60
2023/11/18 07:51:27;;;;;;;;;;;;;;;;;;4182038;28;19924;-66
2023/11/18 07:53:29;;;;;;;;;;;;;;;;;;4186894;28;19956;-64
2023/11/18 07:55:34;;;;;;;;;;;;;;;;;;4198254;28;19920;-65
2023/11/18 07:57:36;;;;;;;;;;;;;;;;;;4193974;28;19928;-66
2023/11/18 07:59:37;;;;;;;;;;;;;;;;;;4196359;28;20374;-65
2023/11/18 08:01:39;;;;;;;;;;;;;;;;;;4203409;28;19924;-65
2023/11/18 08:03:41;;;;;;;;;;;;;;;;;;4188590;28;19920;-65
2023/11/18 08:05:43;;;;;;;;;;;;;;;;;;4196491;28;19920;-65
2023/11/18 08:07:45;;;;;;;;;;;;;;;;;;4197279;28;19993;-64
2023/11/18 08:09:47;;;;;;;;;;;;;;;;;;4196027;28;19920;-65
2023/11/18 08:11:49;;;;;;;;;;;;;;;;;;4197522;28;20388;-65
2023/11/18 08:13:50;;;;;;;;;;;;;;;;;;4197616;28;19920;-65
2023/11/18 08:15:52;;;;;;;;;;;;;;;;;;4163247;28;19944;-66
2023/11/18 08:17:53;;;;;;;;;;;;;;;;;;4180048;28;19925;-65
2023/11/18 08:19:55;;;;;;;;;;;;;;;;;;4197617;28;19965;-65
2023/11/18 08:21:58;;;;;;;;;;;;;;;;;;4197793;28;20007;-66
2023/11/18 08:24:00;;;;;;;;;;;;;;;;;;4194012;28;19997;-66
2023/11/18 08:26:01;;;;;;;;;;;;;;;;;;4193476;28;19981;-66
2023/11/18 08:28:07;;;;;;;;;;;;;;;;;;4186005;28;19929;-65
2023/11/18 08:30:12;;;;;;;;;;;;;;;;;;4195105;28;20360;-65
2023/11/18 08:32:14;;;;;;;;;;;;;;;;;;4197376;28;20332;-65
2023/11/18 08:34:18;;;;;;;;;;;;;;;;;;4197211;28;20394;-65
2023/11/18 08:36:20;;;;;;;;;;;;;;;;;;4197394;28;19921;-66
2023/11/18 08:38:21;;;;;;;;;;;;;;;;;;4197444;28;20299;-65
2023/11/18 08:40:24;;;;;;;;;;;;;;;;;;4197263;28;19926;-65
2023/11/18 08:42:27;;;;;;;;;;;;;;;;;;4179245;28;19921;-66
2023/11/18 08:44:29;;;;;;;;;;;;;;;;;;4179680;28;19963;-65
2023/11/18 08:46:31;;;;;;;;;;;;;;;;;;4198088;28;20269;-65
2023/11/18 08:48:33;;;;;;;;;;;;;;;;;;4197445;28;19950;-66
2023/11/18 08:50:35;;;;;;;;;;;;;;;;;;4196847;28;19924;-65
2023/11/18 08:52:37;;;;;;;;;;;;;;;;;;4197021;28;20011;-65
2023/11/18 08:54:42;;;;;;;;;;;;;;;;;;4197354;28;20034;-65
2023/11/18 08:56:44;;;;;;;;;;;;;;;;;;4192393;28;19971;-64
2023/11/18 08:58:45;;;;;;;;;;;;;;;;;;4194585;28;19947;-65
2023/11/18 09:00:53;;;;;;;;;;;;;;;;;;4198932;28;19920;-66
2023/11/18 09:03:01;;;;;;;;;;;;;;;;;;4194239;28;20299;-65
2023/11/18 09:05:06;;;;;;;;;;;;;;;;;;4179269;28;20316;-65
2023/11/18 09:07:09;;;;;;;;;;;;;;;;;;4197398;28;19935;-65
2023/11/18 09:09:15;;;;;;;;;;;;;;;;;;4189088;28;19928;-64
2023/11/18 09:11:17;;;;;;;;;;;;;;;;;;4195805;28;19942;-65
2023/11/18 09:13:19;;;;;;;;;;;;;;;;;;4197416;28;19924;-65
2023/11/18 09:15:24;;;;;;;;;;;;;;;;;;4196269;28;19978;-65
2023/11/18 09:17:26;;;;;;;;;;;;;;;;;;4194380;28;20350;-65
2023/11/18 09:19:28;;;;;;;;;;;;;;;;;;4195277;28;19928;-65
2023/11/18 09:21:35;;;;;;;;;;;;;;;;;;4196895;28;20684;-65
2023/11/18 09:23:37;;;;;;;;;;;;;;;;;;4197296;28;20366;-66
2023/11/18 09:25:40;;;;;;;;;;;;;;;;;;4197208;28;20374;-66
2023/11/18 09:27:41;;;;;;;;;;;;;;;;;;4195448;28;19928;-66
2023/11/18 09:29:44;;;;;;;;;;;;;;;;;;4197146;28;19960;-67
2023/11/18 09:31:48;;;;;;;;;;;;;;;;;;4196684;28;19920;-67
2023/11/18 09:33:52;;;;;;;;;;;;;;;;;;4191528;28;19928;-67
2023/11/18 09:35:58;;;;;;;;;;;;;;;;;;4196215;28;19964;-67
2023/11/18 09:38:02;;;;;;;;;;;;;;;;;;4197100;28;19931;-67
2023/11/18 09:40:11;;;;;;;;;;;;;;;;;;4196871;28;19988;-67
2023/11/18 09:42:14;;;;;;;;;;;;;;;;;;4196926;28;19920;-67
2023/11/18 09:44:18;;;;;;;;;;;;;;;;;;4196992;28;19947;-67
2023/11/18 09:46:21;;;;;;;;;;;;;;;;;;4179391;28;19990;-67
2023/11/18 09:48:26;;;;;;;;;;;;;;;;;;4196839;28;20011;-67
2023/11/18 09:50:28;;;;;;;;;;;;;;;;;;4196934;28;19921;-67
2023/11/18 09:52:31;;;;;;;;;;;;;;;;;;4196968;28;20380;-66
2023/11/18 09:54:33;;;;;;;;;;;;;;;;;;4196581;28;19946;-67
2023/11/18 09:56:38;;;;;;;;;;;;;;;;;;4196911;28;19924;-67
2023/11/18 09:58:41;;;;;;;;;;;;;;;;;;4196915;28;19921;-67
2023/11/18 10:00:42;;;;;;;;;;;;;;;;;;4198769;28;19982;-67
2023/11/18 10:02:46;;;;;;;;;;;;;;;;;;4197348;28;19920;-66
2023/11/18 10:04:49;;;;;;;;;;;;;;;;;;4199910;28;19924;-67
2023/11/18 10:06:53;;;;;;;;;;;;;;;;;;4199895;28;19930;-66
2023/11/18 10:08:55;;;;;;;;;;;;;;;;;;4199530;28;20359;-66
2023/11/18 10:11:04;;;;;;;;;;;;;;;;;;4199621;28;19925;-63
2023/11/18 10:13:21;;;;;;;;;;;;;;;;;;4199773;28;19924;-66
2023/11/18 10:15:26;;;;;;;;;;;;;;;;;;4199692;28;19931;-66
2023/11/18 10:17:28;;;;;;;;;;;;;;;;;;4199711;28;19920;-66
2023/11/18 10:19:35;;;;;;;;;;;;;;;;;;4199525;28;19920;-67
2023/11/18 10:21:39;;;;;;;;;;;;;;;;;;4199470;28;20290;-66
2023/11/18 10:23:41;;;;;;;;;;;;;;;;;;4199217;28;19920;-67
2023/11/18 10:25:43;;;;;;;;;;;;;;;;;;4199413;28;19973;-67
2023/11/18 10:27:45;;;;;;;;;;;;;;;;;;4199414;28;19925;-67
2023/11/18 10:29:46;;;;;;;;;;;;;;;;;;4199723;28;20229;-67
2023/11/18 10:31:48;;;;;;;;;;;;;;;;;;4199403;28;20290;-67
2023/11/18 10:33:51;;;;;;;;;;;;;;;;;;4199469;28;19955;-67
2023/11/18 10:35:55;;;;;;;;;;;;;;;;;;4198080;28;19928;-67
2023/11/18 10:37:59;;;;;;;;;;;;;;;;;;4187600;28;19920;-67
2023/11/18 10:40:01;;;;;;;;;;;;;;;;;;4198299;28;19926;-67
2023/11/18 10:42:02;;;;;;;;;;;;;;;;;;4194444;28;19924;-67
2023/11/18 10:44:04;;;;;;;;;;;;;;;;;;4181409;28;20574;-67
2023/11/18 10:46:11;;;;;;;;;;;;;;;;;;4197097;28;19924;-67
2023/11/18 10:48:19;;;;;;;;;;;;;;;;;;4199180;28;20379;-68
2023/11/18 10:50:22;;;;;;;;;;;;;;;;;;4198627;28;19952;-68
2023/11/18 10:52:23;;;;;;;;;;;;;;;;;;4183441;28;19920;-67
2023/11/18 10:54:26;;;;;;;;;;;;;;;;;;4193018;28;19925;-68
2023/11/18 10:56:28;;;;;;;;;;;;;;;;;;4199134;28;19920;-67
2023/11/18 10:58:30;;;;;;;;;;;;;;;;;;4199127;28;19927;-67
2023/11/18 11:00:33;;;;;;;;;;;;;;;;;;4195557;28;20264;-67
2023/11/18 11:02:39;;;;;;;;;;;;;;;;;;4198762;28;20043;-67
2023/11/18 11:04:41;;;;;;;;;;;;;;;;;;4189654;28;19921;-68
2023/11/18 11:06:43;;;;;;;;;;;;;;;;;;4188622;28;19993;-68
2023/11/18 11:08:46;;;;;;;;;;;;;;;;;;4198306;28;19928;-67
2023/11/18 11:10:52;;;;;;;;;;;;;;;;;;4196404;28;19920;-67
2023/11/18 11:12:57;;;;;;;;;;;;;;;;;;4197685;28;20023;-68
2023/11/18 11:14:59;;;;;;;;;;;;;;;;;;4195871;28;19931;-68
2023/11/18 11:17:10;;;;;;;;;;;;;;;;;;4197876;28;19960;-68
2023/11/18 11:19:18;;;;;;;;;;;;;;;;;;4197389;28;20014;-68
2023/11/18 11:21:21;;;;;;;;;;;;;;;;;;4195540;28;19924;-68
2023/11/18 11:23:25;;;;;;;;;;;;;;;;;;4182106;28;20327;-64
2023/11/18 11:25:26;;;;;;;;;;;;;;;;;;4182012;28;20364;-64
2023/11/18 11:27:38;;;;;;;;;;;;;;;;;;4214987;28;19920;-63
2023/11/18 11:29:40;;;;;;;;;;;;;;;;;;4215281;28;19926;-63
2023/11/18 11:31:42;;;;;;;;;;;;;;;;;;4192945;28;19920;-63
2023/11/18 11:33:44;;;;;;;;;;;;;;;;;;4194770;28;19943;-64
2023/11/18 11:35:45;;;;;;;;;;;;;;;;;;4198405;28;19924;-62
2023/11/18 11:37:48;;;;;;;;;;;;;;;;;;4196515;28;19951;-64
2023/11/18 11:39:51;;;;;;;;;;;;;;;;;;4196749;28;20554;-63
2023/11/18 11:41:54;;;;;;;;;;;;;;;;;;4198326;28;19928;-63
2023/11/18 11:43:58;;;;;;;;;;;;;;;;;;4189722;28;19931;-64
2023/11/18 11:46:03;;;;;;;;;;;;;;;;;;4190936;28;19920;-63
2023/11/18 11:48:19;;;;;;;;;;;;;;;;;;4178997;28;20343;-65
2023/11/18 11:50:29;;;;;;;;;;;;;;;;;;4185284;28;19924;-64
2023/11/18 11:52:30;;;;;;;;;;;;;;;;;;4191700;28;20002;-64
2023/11/18 11:54:36;;;;;;;;;;;;;;;;;;4193983;28;19921;-64
2023/11/18 11:56:38;;;;;;;;;;;;;;;;;;4186877;28;19934;-63
2023/11/18 11:58:43;;;;;;;;;;;;;;;;;;4192643;28;19930;-64
2023/11/18 12:00:44;;;;;;;;;;;;;;;;;;4193742;28;19965;-63
2023/11/18 12:02:46;;;;;;;;;;;;;;;;;;4189859;28;19994;-66
2023/11/18 12:04:52;;;;;;;;;;;;;;;;;;4184540;28;20386;-63
2023/11/18 12:06:56;;;;;;;;;;;;;;;;;;4189608;28;19926;-63
2023/11/18 12:09:06;;;;;;;;;;;;;;;;;;4178667;28;19925;-63
2023/11/18 12:11:09;;;;;;;;;;;;;;;;;;4179755;28;19925;-64
2023/11/18 12:13:19;;;;;;;;;;;;;;;;;;4181294;28;19925;-62
2023/11/18 12:15:21;;;;;;;;;;;;;;;;;;4181202;28;19921;-64
2023/11/18 12:17:22;;;;;;;;;;;;;;;;;;4181668;28;19959;-64
2023/11/18 12:19:24;;;;;;;;;;;;;;;;;;4188091;28;20003;-64
2023/11/18 12:21:25;;;;;;;;;;;;;;;;;;4187054;28;19971;-64
2023/11/18 12:23:34;;;;;;;;;;;;;;;;;;4183401;28;19959;-63
2023/11/18 12:25:36;;;;;;;;;;;;;;;;;;4190563;28;19928;-63
2023/11/18 12:27:38;;;;;;;;;;;;;;;;;;4189337;28;19943;-64
2023/11/18 12:29:40;;;;;;;;;;;;;;;;;;4181249;28;19925;-63
2023/11/18 12:31:42;;;;;;;;;;;;;;;;;;4181282;28;19927;-63
2023/11/18 12:33:46;;;;;;;;;;;;;;;;;;4181245;28;19955;-68
2023/11/18 12:35:48;;;;;;;;;;;;;;;;;;4192813;28;19974;-68
2023/11/18 12:37:50;;;;;;;;;;;;;;;;;;4193967;28;19924;-68
2023/11/18 12:39:52;;;;;;;;;;;;;;;;;;4187894;28;19920;-68
2023/11/18 12:41:54;;;;;;;;;;;;;;;;;;4197444;28;19924;-68
2023/11/18 12:43:57;;;;;;;;;;;;;;;;;;4197685;28;20007;-68
2023/11/18 12:46:00;;;;;;;;;;;;;;;;;;4197030;28;19973;-68
2023/11/18 12:48:02;;;;;;;;;;;;;;;;;;4192682;28;20380;-68
2023/11/18 12:50:04;;;;;;;;;;;;;;;;;;4189478;28;19924;-68
2023/11/18 12:52:08;;;;;;;;;;;;;;;;;;4179694;28;19932;-68
2023/11/18 12:54:11;;;;;;;;;;;;;;;;;;4190397;28;19920;-67
2023/11/18 12:56:13;;;;;;;;;;;;;;;;;;4190556;28;19924;-66
2023/11/18 12:58:15;;;;;;;;;;;;;;;;;;4195027;28;19970;-68
2023/11/18 13:00:26;;;;;;;;;;;;;;;;;;4187905;28;19928;-67
2023/11/18 13:02:28;;;;;;;;;;;;;;;;;;4180622;28;19920;-68
2023/11/18 13:04:30;;;;;;;;;;;;;;;;;;4180792;28;20007;-67
2023/11/18 13:06:32;;;;;;;;;;;;;;;;;;4180697;28;19921;-67
2023/11/18 13:08:33;;;;;;;;;;;;;;;;;;4186327;28;20011;-67
2023/11/18 13:10:35;;;;;;;;;;;;;;;;;;4182935;28;20023;-68
2023/11/18 13:12:36;;;;;;;;;;;;;;;;;;4193889;28;20280;-68
2023/11/18 13:14:39;;;;;;;;;;;;;;;;;;4186019;28;20007;-68
2023/11/18 13:16:41;;;;;;;;;;;;;;;;;;4190901;28;19990;-67
2023/11/18 13:18:44;;;;;;;;;;;;;;;;;;4197019;28;20379;-68
2023/11/18 13:20:45;;;;;;;;;;;;;;;;;;4197154;28;19967;-67
2023/11/18 13:22:47;;;;;;;;;;;;;;;;;;4197177;28;19928;-67
2023/11/18 13:24:49;;;;;;;;;;;;;;;;;;4197052;28;20396;-67
2023/11/18 13:26:51;;;;;;;;;;;;;;;;;;4197094;28;20337;-67
2023/11/18 13:28:53;;;;;;;;;;;;;;;;;;4194843;28;19947;-67
2023/11/18 13:30:55;;;;;;;;;;;;;;;;;;4192940;28;19927;-67
2023/11/18 13:32:57;;;;;;;;;;;;;;;;;;4189079;28;20395;-67
2023/11/18 13:34:59;;;;;;;;;;;;;;;;;;4194051;28;19966;-66
2023/11/18 13:37:01;;;;;;;;;;;;;;;;;;4195397;28;20410;-67
2023/11/18 13:39:06;;;;;;;;;;;;;;;;;;4200121;28;19921;-68
2023/11/18 13:41:09;;;;;;;;;;;;;;;;;;4192949;28;19924;-68
2023/11/18 13:43:11;;;;;;;;;;;;;;;;;;4188832;28;19920;-63
2023/11/18 13:45:15;;;;;;;;;;;;;;;;;;4199156;28;19974;-62
2023/11/18 13:47:31;;;;;;;;;;;;;;;;;;4183717;28;19928;-62
2023/11/18 13:49:34;;;;;;;;;;;;;;;;;;4186290;28;20379;-62
2023/11/18 13:51:36;;;;;;;;;;;;;;;;;;4200067;28;19926;-62
2023/11/18 13:53:37;;;;;;;;;;;;;;;;;;4195209;28;20022;-62
2023/11/18 13:55:39;;;;;;;;;;;;;;;;;;4192510;28;20011;-62
2023/11/18 13:57:40;;;;;;;;;;;;;;;;;;4200157;28;19960;-62
2023/11/18 13:59:44;;;;;;;;;;;;;;;;;;4199885;28;19920;-62
2023/11/18 14:01:46;;;;;;;;;;;;;;;;;;4210834;28;20436;-61